sensor_id;sensor_type;location;lat;lon;timestamp;P1;durP1;ratioP1;P2;durP2;ratioP2
73113;SDS011;61301;51.956;5.876;2024-03-08T00:02:03;34.15;;;18.63;;
73113;SDS011;61301;51.956;5.876;2024-03-08T00:04:29;36.83;;;20.27;;
73113;SDS011;61301;51.956;5.876;2024-03-08T00:06:55;30.02;;;18.38;;
73113;SDS011;61301;51.956;5.876;2024-03-08T00:09:22;25.55;;;16.73;;
73113;SDS011;61301;51.956;5.876;2024-03-08T00:11:48;33.17;;;19.70;;
73113;SDS011;61301;51.956;5.876;2024-03-08T00:14:16;32.78;;;17.98;;
73113;SDS011;61301;51.956;5.876;2024-03-08T00:16:42;29.88;;;18.50;;
73113;SDS011;61301;51.956;5.876;2024-03-08T00:19:09;31.40;;;18.20;;
73113;SDS011;61301;51.956;5.876;2024-03-08T00:21:35;25.48;;;17.20;;
73113;SDS011;61301;51.956;5.876;2024-03-08T00:24:01;25.52;;;16.20;;
73113;SDS011;61301;51.956;5.876;2024-03-08T00:26:27;28.63;;;17.75;;
73113;SDS011;61301;51.956;5.876;2024-03-08T00:28:55;28.58;;;18.17;;
73113;SDS011;61301;51.956;5.876;2024-03-08T00:31:21;30.88;;;18.77;;
73113;SDS011;61301;51.956;5.876;2024-03-08T00:33:47;27.60;;;17.55;;
73113;SDS011;61301;51.956;5.876;2024-03-08T00:36:13;28.10;;;18.23;;
73113;SDS011;61301;51.956;5.876;2024-03-08T00:38:39;31.67;;;18.25;;
73113;SDS011;61301;51.956;5.876;2024-03-08T00:41:05;29.73;;;18.15;;
73113;SDS011;61301;51.956;5.876;2024-03-08T00:43:31;31.70;;;20.17;;
73113;SDS011;61301;51.956;5.876;2024-03-08T00:45:57;33.25;;;19.55;;
73113;SDS011;61301;51.956;5.876;2024-03-08T00:48:23;28.65;;;18.33;;
73113;SDS011;61301;51.956;5.876;2024-03-08T00:50:49;28.50;;;18.88;;
73113;SDS011;61301;51.956;5.876;2024-03-08T00:53:15;31.58;;;19.30;;
73113;SDS011;61301;51.956;5.876;2024-03-08T00:55:42;26.80;;;17.65;;
73113;SDS011;61301;51.956;5.876;2024-03-08T00:58:08;31.30;;;18.42;;
73113;SDS011;61301;51.956;5.876;2024-03-08T01:00:34;28.20;;;17.35;;
73113;SDS011;61301;51.956;5.876;2024-03-08T01:03:00;29.80;;;18.80;;
73113;SDS011;61301;51.956;5.876;2024-03-08T01:05:29;29.00;;;19.00;;
73113;SDS011;61301;51.956;5.876;2024-03-08T01:07:55;33.65;;;19.98;;
73113;SDS011;61301;51.956;5.876;2024-03-08T01:10:21;33.08;;;21.20;;
73113;SDS011;61301;51.956;5.876;2024-03-08T01:12:47;32.53;;;19.95;;
73113;SDS011;61301;51.956;5.876;2024-03-08T01:15:13;27.83;;;18.50;;
73113;SDS011;61301;51.956;5.876;2024-03-08T01:17:39;29.42;;;19.15;;
73113;SDS011;61301;51.956;5.876;2024-03-08T01:20:05;29.60;;;19.90;;
73113;SDS011;61301;51.956;5.876;2024-03-08T01:22:32;27.27;;;18.83;;
73113;SDS011;61301;51.956;5.876;2024-03-08T01:24:58;28.58;;;19.17;;
73113;SDS011;61301;51.956;5.876;2024-03-08T01:27:25;30.17;;;18.65;;
73113;SDS011;61301;51.956;5.876;2024-03-08T01:29:51;27.05;;;18.45;;
73113;SDS011;61301;51.956;5.876;2024-03-08T01:32:17;26.48;;;19.05;;
73113;SDS011;61301;51.956;5.876;2024-03-08T01:34:43;29.50;;;19.48;;
73113;SDS011;61301;51.956;5.876;2024-03-08T01:37:10;30.17;;;19.00;;
73113;SDS011;61301;51.956;5.876;2024-03-08T01:39:36;26.92;;;19.05;;
73113;SDS011;61301;51.956;5.876;2024-03-08T01:42:07;29.05;;;19.75;;
73113;SDS011;61301;51.956;5.876;2024-03-08T01:44:33;27.05;;;18.80;;
73113;SDS011;61301;51.956;5.876;2024-03-08T01:47:00;27.60;;;19.30;;
73113;SDS011;61301;51.956;5.876;2024-03-08T01:49:26;27.92;;;19.70;;
73113;SDS011;61301;51.956;5.876;2024-03-08T01:51:53;29.05;;;20.42;;
73113;SDS011;61301;51.956;5.876;2024-03-08T01:54:22;30.48;;;20.10;;
73113;SDS011;61301;51.956;5.876;2024-03-08T01:56:49;29.17;;;18.58;;
73113;SDS011;61301;51.956;5.876;2024-03-08T01:59:15;26.65;;;18.73;;
73113;SDS011;61301;51.956;5.876;2024-03-08T02:01:42;33.00;;;20.02;;
73113;SDS011;61301;51.956;5.876;2024-03-08T02:04:08;27.27;;;17.23;;
73113;SDS011;61301;51.956;5.876;2024-03-08T02:06:35;25.15;;;17.83;;
73113;SDS011;61301;51.956;5.876;2024-03-08T02:09:01;26.85;;;18.90;;
73113;SDS011;61301;51.956;5.876;2024-03-08T02:11:32;28.67;;;19.20;;
73113;SDS011;61301;51.956;5.876;2024-03-08T02:13:59;28.48;;;19.55;;
73113;SDS011;61301;51.956;5.876;2024-03-08T02:16:25;32.38;;;20.70;;
73113;SDS011;61301;51.956;5.876;2024-03-08T02:18:51;28.80;;;18.85;;
73113;SDS011;61301;51.956;5.876;2024-03-08T02:21:17;27.25;;;19.98;;
73113;SDS011;61301;51.956;5.876;2024-03-08T02:23:44;28.27;;;20.65;;
73113;SDS011;61301;51.956;5.876;2024-03-08T02:26:10;29.58;;;20.35;;
73113;SDS011;61301;51.956;5.876;2024-03-08T02:28:37;28.83;;;19.13;;
73113;SDS011;61301;51.956;5.876;2024-03-08T02:31:03;28.52;;;21.10;;
73113;SDS011;61301;51.956;5.876;2024-03-08T02:33:33;31.38;;;19.30;;
73113;SDS011;61301;51.956;5.876;2024-03-08T02:36:00;29.83;;;19.73;;
73113;SDS011;61301;51.956;5.876;2024-03-08T02:38:26;25.98;;;19.35;;
73113;SDS011;61301;51.956;5.876;2024-03-08T02:40:53;26.75;;;19.02;;
73113;SDS011;61301;51.956;5.876;2024-03-08T02:43:19;31.13;;;20.70;;
73113;SDS011;61301;51.956;5.876;2024-03-08T02:45:47;30.67;;;21.05;;
73113;SDS011;61301;51.956;5.876;2024-03-08T02:48:14;30.65;;;20.58;;
73113;SDS011;61301;51.956;5.876;2024-03-08T02:50:42;27.58;;;19.83;;
73113;SDS011;61301;51.956;5.876;2024-03-08T02:53:11;33.67;;;20.98;;
73113;SDS011;61301;51.956;5.876;2024-03-08T02:55:38;28.27;;;19.80;;
73113;SDS011;61301;51.956;5.876;2024-03-08T02:58:04;31.70;;;21.75;;
73113;SDS011;61301;51.956;5.876;2024-03-08T03:00:31;30.40;;;20.35;;
73113;SDS011;61301;51.956;5.876;2024-03-08T03:02:58;28.67;;;19.77;;
73113;SDS011;61301;51.956;5.876;2024-03-08T03:05:24;33.80;;;20.80;;
73113;SDS011;61301;51.956;5.876;2024-03-08T03:07:50;30.23;;;20.00;;
73113;SDS011;61301;51.956;5.876;2024-03-08T03:10:17;28.65;;;19.92;;
73113;SDS011;61301;51.956;5.876;2024-03-08T03:12:43;30.58;;;19.77;;
73113;SDS011;61301;51.956;5.876;2024-03-08T03:15:14;32.28;;;21.52;;
73113;SDS011;61301;51.956;5.876;2024-03-08T03:17:45;30.23;;;21.73;;
73113;SDS011;61301;51.956;5.876;2024-03-08T03:20:18;30.58;;;20.25;;
73113;SDS011;61301;51.956;5.876;2024-03-08T03:22:49;33.17;;;22.13;;
73113;SDS011;61301;51.956;5.876;2024-03-08T03:25:18;31.00;;;21.58;;
73113;SDS011;61301;51.956;5.876;2024-03-08T03:30:22;29.27;;;20.38;;
73113;SDS011;61301;51.956;5.876;2024-03-08T03:32:49;31.48;;;20.05;;
73113;SDS011;61301;51.956;5.876;2024-03-08T03:35:16;29.55;;;21.02;;
73113;SDS011;61301;51.956;5.876;2024-03-08T03:37:43;30.38;;;22.00;;
73113;SDS011;61301;51.956;5.876;2024-03-08T03:40:27;32.90;;;23.08;;
73113;SDS011;61301;51.956;5.876;2024-03-08T03:42:54;29.42;;;21.75;;
73113;SDS011;61301;51.956;5.876;2024-03-08T03:45:21;28.60;;;20.65;;
73113;SDS011;61301;51.956;5.876;2024-03-08T03:47:47;33.22;;;23.88;;
73113;SDS011;61301;51.956;5.876;2024-03-08T03:50:13;28.35;;;20.55;;
73113;SDS011;61301;51.956;5.876;2024-03-08T03:52:39;32.55;;;20.88;;
73113;SDS011;61301;51.956;5.876;2024-03-08T03:55:05;28.40;;;21.08;;
73113;SDS011;61301;51.956;5.876;2024-03-08T03:57:31;32.53;;;21.33;;
73113;SDS011;61301;51.956;5.876;2024-03-08T03:59:57;29.92;;;20.75;;
73113;SDS011;61301;51.956;5.876;2024-03-08T04:02:24;28.30;;;21.38;;
73113;SDS011;61301;51.956;5.876;2024-03-08T04:04:52;33.55;;;22.63;;
73113;SDS011;61301;51.956;5.876;2024-03-08T04:07:20;28.02;;;20.80;;
73113;SDS011;61301;51.956;5.876;2024-03-08T04:09:46;28.13;;;19.98;;
73113;SDS011;61301;51.956;5.876;2024-03-08T04:12:12;30.25;;;21.45;;
73113;SDS011;61301;51.956;5.876;2024-03-08T04:14:41;31.02;;;23.08;;
73113;SDS011;61301;51.956;5.876;2024-03-08T04:17:08;31.08;;;21.40;;
73113;SDS011;61301;51.956;5.876;2024-03-08T04:19:38;31.77;;;22.75;;
73113;SDS011;61301;51.956;5.876;2024-03-08T04:22:05;28.35;;;20.13;;
73113;SDS011;61301;51.956;5.876;2024-03-08T04:24:33;31.20;;;21.05;;
73113;SDS011;61301;51.956;5.876;2024-03-08T04:26:59;28.50;;;20.73;;
73113;SDS011;61301;51.956;5.876;2024-03-08T04:29:25;31.90;;;21.20;;
73113;SDS011;61301;51.956;5.876;2024-03-08T04:31:52;32.67;;;20.98;;
73113;SDS011;61301;51.956;5.876;2024-03-08T04:34:20;27.27;;;19.67;;
73113;SDS011;61301;51.956;5.876;2024-03-08T04:36:49;33.22;;;22.92;;
73113;SDS011;61301;51.956;5.876;2024-03-08T04:39:15;32.97;;;22.20;;
73113;SDS011;61301;51.956;5.876;2024-03-08T04:41:41;31.45;;;22.65;;
73113;SDS011;61301;51.956;5.876;2024-03-08T04:44:10;34.40;;;21.95;;
73113;SDS011;61301;51.956;5.876;2024-03-08T04:46:38;32.85;;;22.63;;
73113;SDS011;61301;51.956;5.876;2024-03-08T04:49:04;29.85;;;21.30;;
73113;SDS011;61301;51.956;5.876;2024-03-08T04:51:30;32.17;;;20.63;;
73113;SDS011;61301;51.956;5.876;2024-03-08T04:53:56;34.05;;;23.52;;
73113;SDS011;61301;51.956;5.876;2024-03-08T04:56:22;29.85;;;21.70;;
73113;SDS011;61301;51.956;5.876;2024-03-08T04:58:48;28.60;;;20.80;;
73113;SDS011;61301;51.956;5.876;2024-03-08T05:01:15;33.28;;;22.45;;
73113;SDS011;61301;51.956;5.876;2024-03-08T05:03:41;31.13;;;22.23;;
73113;SDS011;61301;51.956;5.876;2024-03-08T05:06:07;29.67;;;20.73;;
73113;SDS011;61301;51.956;5.876;2024-03-08T05:08:33;29.00;;;22.02;;
73113;SDS011;61301;51.956;5.876;2024-03-08T05:11:00;32.92;;;22.05;;
73113;SDS011;61301;51.956;5.876;2024-03-08T05:13:30;29.85;;;21.83;;
73113;SDS011;61301;51.956;5.876;2024-03-08T05:15:56;35.17;;;23.90;;
73113;SDS011;61301;51.956;5.876;2024-03-08T05:18:25;30.17;;;22.05;;
73113;SDS011;61301;51.956;5.876;2024-03-08T05:20:53;29.02;;;21.15;;
73113;SDS011;61301;51.956;5.876;2024-03-08T05:23:19;33.30;;;22.42;;
73113;SDS011;61301;51.956;5.876;2024-03-08T05:25:45;30.63;;;21.23;;
73113;SDS011;61301;51.956;5.876;2024-03-08T05:28:14;34.67;;;23.08;;
73113;SDS011;61301;51.956;5.876;2024-03-08T05:30:40;30.55;;;22.27;;
73113;SDS011;61301;51.956;5.876;2024-03-08T05:33:06;33.33;;;22.55;;
73113;SDS011;61301;51.956;5.876;2024-03-08T05:35:36;33.33;;;23.85;;
73113;SDS011;61301;51.956;5.876;2024-03-08T05:38:02;32.08;;;22.35;;
73113;SDS011;61301;51.956;5.876;2024-03-08T05:40:28;29.42;;;20.10;;
73113;SDS011;61301;51.956;5.876;2024-03-08T05:42:58;31.92;;;22.05;;
73113;SDS011;61301;51.956;5.876;2024-03-08T05:45:25;32.10;;;23.08;;
73113;SDS011;61301;51.956;5.876;2024-03-08T05:47:54;31.77;;;24.13;;
73113;SDS011;61301;51.956;5.876;2024-03-08T05:50:20;31.88;;;23.15;;
73113;SDS011;61301;51.956;5.876;2024-03-08T05:52:46;31.58;;;21.95;;
73113;SDS011;61301;51.956;5.876;2024-03-08T05:55:15;29.35;;;21.80;;
73113;SDS011;61301;51.956;5.876;2024-03-08T05:57:41;35.92;;;22.65;;
73113;SDS011;61301;51.956;5.876;2024-03-08T06:00:08;36.03;;;23.95;;
73113;SDS011;61301;51.956;5.876;2024-03-08T06:02:40;30.87;;;22.37;;
73113;SDS011;61301;51.956;5.876;2024-03-08T06:05:10;35.67;;;23.48;;
73113;SDS011;61301;51.956;5.876;2024-03-08T06:07:37;34.35;;;23.30;;
73113;SDS011;61301;51.956;5.876;2024-03-08T06:10:07;34.22;;;23.73;;
73113;SDS011;61301;51.956;5.876;2024-03-08T06:12:38;32.35;;;23.30;;
73113;SDS011;61301;51.956;5.876;2024-03-08T06:15:07;30.27;;;21.73;;
73113;SDS011;61301;51.956;5.876;2024-03-08T06:17:34;31.52;;;22.65;;
73113;SDS011;61301;51.956;5.876;2024-03-08T06:20:01;36.72;;;23.80;;
73113;SDS011;61301;51.956;5.876;2024-03-08T06:22:28;33.13;;;22.90;;
73113;SDS011;61301;51.956;5.876;2024-03-08T06:24:56;32.58;;;23.20;;
73113;SDS011;61301;51.956;5.876;2024-03-08T06:27:22;33.80;;;24.05;;
73113;SDS011;61301;51.956;5.876;2024-03-08T06:29:48;31.80;;;22.60;;
73113;SDS011;61301;51.956;5.876;2024-03-08T06:32:14;34.53;;;24.13;;
73113;SDS011;61301;51.956;5.876;2024-03-08T06:34:41;31.10;;;21.48;;
73113;SDS011;61301;51.956;5.876;2024-03-08T06:37:07;34.38;;;23.67;;
73113;SDS011;61301;51.956;5.876;2024-03-08T06:39:33;32.13;;;23.77;;
73113;SDS011;61301;51.956;5.876;2024-03-08T06:42:01;39.40;;;24.85;;
73113;SDS011;61301;51.956;5.876;2024-03-08T06:44:27;35.63;;;25.80;;
73113;SDS011;61301;51.956;5.876;2024-03-08T06:46:53;36.45;;;25.15;;
73113;SDS011;61301;51.956;5.876;2024-03-08T06:49:19;36.03;;;25.60;;
73113;SDS011;61301;51.956;5.876;2024-03-08T06:51:45;30.92;;;22.73;;
73113;SDS011;61301;51.956;5.876;2024-03-08T06:54:11;37.47;;;26.08;;
73113;SDS011;61301;51.956;5.876;2024-03-08T06:56:37;35.42;;;23.17;;
73113;SDS011;61301;51.956;5.876;2024-03-08T06:59:03;34.97;;;23.45;;
73113;SDS011;61301;51.956;5.876;2024-03-08T07:01:29;33.92;;;23.88;;
73113;SDS011;61301;51.956;5.876;2024-03-08T07:04:00;37.60;;;23.90;;
73113;SDS011;61301;51.956;5.876;2024-03-08T07:06:30;34.83;;;24.48;;
73113;SDS011;61301;51.956;5.876;2024-03-08T07:08:59;32.00;;;21.50;;
73113;SDS011;61301;51.956;5.876;2024-03-08T07:11:25;31.23;;;22.85;;
73113;SDS011;61301;51.956;5.876;2024-03-08T07:13:51;33.92;;;23.23;;
73113;SDS011;61301;51.956;5.876;2024-03-08T07:16:16;35.67;;;22.75;;
73113;SDS011;61301;51.956;5.876;2024-03-08T07:18:42;34.05;;;23.63;;
73113;SDS011;61301;51.956;5.876;2024-03-08T07:21:09;37.83;;;24.88;;
73113;SDS011;61301;51.956;5.876;2024-03-08T07:23:38;37.45;;;25.58;;
73113;SDS011;61301;51.956;5.876;2024-03-08T07:26:23;34.78;;;24.70;;
73113;SDS011;61301;51.956;5.876;2024-03-08T07:28:49;36.40;;;25.08;;
73113;SDS011;61301;51.956;5.876;2024-03-08T07:31:15;40.47;;;26.35;;
73113;SDS011;61301;51.956;5.876;2024-03-08T07:33:57;36.92;;;24.35;;
73113;SDS011;61301;51.956;5.876;2024-03-08T07:36:24;36.35;;;25.50;;
73113;SDS011;61301;51.956;5.876;2024-03-08T07:38:50;38.28;;;25.08;;
73113;SDS011;61301;51.956;5.876;2024-03-08T07:41:16;32.30;;;23.08;;
73113;SDS011;61301;51.956;5.876;2024-03-08T07:43:42;35.65;;;23.63;;
73113;SDS011;61301;51.956;5.876;2024-03-08T07:46:11;33.22;;;23.17;;
73113;SDS011;61301;51.956;5.876;2024-03-08T07:48:38;34.10;;;23.98;;
73113;SDS011;61301;51.956;5.876;2024-03-08T07:51:05;36.90;;;24.92;;
73113;SDS011;61301;51.956;5.876;2024-03-08T07:53:31;36.60;;;24.63;;
73113;SDS011;61301;51.956;5.876;2024-03-08T07:55:57;35.85;;;24.63;;
73113;SDS011;61301;51.956;5.876;2024-03-08T07:58:23;33.15;;;24.30;;
73113;SDS011;61301;51.956;5.876;2024-03-08T08:00:49;32.97;;;24.02;;
73113;SDS011;61301;51.956;5.876;2024-03-08T08:03:15;35.78;;;23.73;;
73113;SDS011;61301;51.956;5.876;2024-03-08T08:05:43;37.45;;;24.83;;
73113;SDS011;61301;51.956;5.876;2024-03-08T08:08:09;36.17;;;24.27;;
73113;SDS011;61301;51.956;5.876;2024-03-08T08:10:36;35.42;;;24.98;;
73113;SDS011;61301;51.956;5.876;2024-03-08T08:13:03;35.28;;;24.05;;
73113;SDS011;61301;51.956;5.876;2024-03-08T08:15:32;35.38;;;25.50;;
73113;SDS011;61301;51.956;5.876;2024-03-08T08:18:01;33.78;;;25.13;;
73113;SDS011;61301;51.956;5.876;2024-03-08T08:20:31;35.10;;;24.35;;
73113;SDS011;61301;51.956;5.876;2024-03-08T08:22:57;33.25;;;24.50;;
73113;SDS011;61301;51.956;5.876;2024-03-08T08:25:24;35.72;;;26.17;;
73113;SDS011;61301;51.956;5.876;2024-03-08T08:27:50;33.63;;;22.98;;
73113;SDS011;61301;51.956;5.876;2024-03-08T08:30:16;36.00;;;25.23;;
73113;SDS011;61301;51.956;5.876;2024-03-08T08:32:42;34.58;;;25.13;;
73113;SDS011;61301;51.956;5.876;2024-03-08T08:35:09;31.08;;;23.23;;
73113;SDS011;61301;51.956;5.876;2024-03-08T08:37:40;34.67;;;24.42;;
73113;SDS011;61301;51.956;5.876;2024-03-08T08:40:07;37.35;;;24.13;;
73113;SDS011;61301;51.956;5.876;2024-03-08T08:42:40;32.85;;;24.60;;
73113;SDS011;61301;51.956;5.876;2024-03-08T08:45:07;34.60;;;23.73;;
73113;SDS011;61301;51.956;5.876;2024-03-08T08:47:36;36.53;;;25.45;;
73113;SDS011;61301;51.956;5.876;2024-03-08T08:50:02;35.17;;;24.08;;
73113;SDS011;61301;51.956;5.876;2024-03-08T08:52:32;34.40;;;25.52;;
73113;SDS011;61301;51.956;5.876;2024-03-08T08:54:58;34.78;;;23.95;;
73113;SDS011;61301;51.956;5.876;2024-03-08T08:57:24;32.30;;;23.20;;
73113;SDS011;61301;51.956;5.876;2024-03-08T08:59:51;36.03;;;23.73;;
73113;SDS011;61301;51.956;5.876;2024-03-08T09:02:17;34.92;;;23.75;;
73113;SDS011;61301;51.956;5.876;2024-03-08T09:04:46;32.33;;;22.00;;
73113;SDS011;61301;51.956;5.876;2024-03-08T09:07:13;29.00;;;21.13;;
73113;SDS011;61301;51.956;5.876;2024-03-08T09:09:41;31.27;;;23.00;;
73113;SDS011;61301;51.956;5.876;2024-03-08T09:12:08;34.05;;;24.42;;
73113;SDS011;61301;51.956;5.876;2024-03-08T09:14:35;33.60;;;23.23;;
73113;SDS011;61301;51.956;5.876;2024-03-08T09:17:01;32.28;;;23.25;;
73113;SDS011;61301;51.956;5.876;2024-03-08T09:19:27;35.15;;;22.88;;
73113;SDS011;61301;51.956;5.876;2024-03-08T09:21:54;34.63;;;24.35;;
73113;SDS011;61301;51.956;5.876;2024-03-08T09:24:20;33.30;;;24.23;;
73113;SDS011;61301;51.956;5.876;2024-03-08T09:26:46;33.00;;;23.05;;
73113;SDS011;61301;51.956;5.876;2024-03-08T09:29:12;32.35;;;22.38;;
73113;SDS011;61301;51.956;5.876;2024-03-08T09:31:38;38.60;;;24.20;;
73113;SDS011;61301;51.956;5.876;2024-03-08T09:34:04;37.00;;;26.30;;
73113;SDS011;61301;51.956;5.876;2024-03-08T09:36:30;31.42;;;25.00;;
73113;SDS011;61301;51.956;5.876;2024-03-08T09:38:58;35.75;;;24.48;;
73113;SDS011;61301;51.956;5.876;2024-03-08T09:41:24;33.08;;;25.33;;
73113;SDS011;61301;51.956;5.876;2024-03-08T09:43:50;33.53;;;23.10;;
73113;SDS011;61301;51.956;5.876;2024-03-08T09:46:17;29.73;;;21.08;;
73113;SDS011;61301;51.956;5.876;2024-03-08T09:48:45;30.08;;;21.30;;
73113;SDS011;61301;51.956;5.876;2024-03-08T09:51:12;29.23;;;20.83;;
73113;SDS011;61301;51.956;5.876;2024-03-08T09:53:41;28.70;;;21.38;;
73113;SDS011;61301;51.956;5.876;2024-03-08T09:56:08;28.40;;;21.13;;
73113;SDS011;61301;51.956;5.876;2024-03-08T09:58:34;31.60;;;21.58;;
73113;SDS011;61301;51.956;5.876;2024-03-08T10:01:00;28.23;;;21.73;;
73113;SDS011;61301;51.956;5.876;2024-03-08T10:03:28;26.85;;;20.65;;
73113;SDS011;61301;51.956;5.876;2024-03-08T10:05:58;28.80;;;20.85;;
73113;SDS011;61301;51.956;5.876;2024-03-08T10:08:30;25.73;;;20.05;;
73113;SDS011;61301;51.956;5.876;2024-03-08T10:10:56;29.75;;;20.52;;
73113;SDS011;61301;51.956;5.876;2024-03-08T10:13:24;31.98;;;20.77;;
73113;SDS011;61301;51.956;5.876;2024-03-08T10:15:53;26.83;;;19.58;;
73113;SDS011;61301;51.956;5.876;2024-03-08T10:18:20;29.80;;;20.67;;
73113;SDS011;61301;51.956;5.876;2024-03-08T10:21:01;28.17;;;21.08;;
73113;SDS011;61301;51.956;5.876;2024-03-08T10:23:32;25.23;;;19.90;;
73113;SDS011;61301;51.956;5.876;2024-03-08T10:26:11;29.25;;;20.95;;
73113;SDS011;61301;51.956;5.876;2024-03-08T10:28:41;27.02;;;19.95;;
73113;SDS011;61301;51.956;5.876;2024-03-08T10:31:08;25.60;;;18.83;;
73113;SDS011;61301;51.956;5.876;2024-03-08T10:33:35;29.88;;;20.00;;
73113;SDS011;61301;51.956;5.876;2024-03-08T10:36:03;27.02;;;18.95;;
73113;SDS011;61301;51.956;5.876;2024-03-08T10:38:33;27.17;;;18.55;;
73113;SDS011;61301;51.956;5.876;2024-03-08T10:41:02;25.50;;;19.25;;
73113;SDS011;61301;51.956;5.876;2024-03-08T10:43:31;27.15;;;20.20;;
73113;SDS011;61301;51.956;5.876;2024-03-08T10:46:06;25.88;;;19.88;;
73113;SDS011;61301;51.956;5.876;2024-03-08T10:48:52;23.67;;;17.60;;
73113;SDS011;61301;51.956;5.876;2024-03-08T10:51:24;24.42;;;18.63;;
73113;SDS011;61301;51.956;5.876;2024-03-08T10:53:51;27.90;;;20.15;;
73113;SDS011;61301;51.956;5.876;2024-03-08T10:56:18;25.10;;;18.15;;
73113;SDS011;61301;51.956;5.876;2024-03-08T10:58:44;24.60;;;18.45;;
73113;SDS011;61301;51.956;5.876;2024-03-08T11:01:11;22.23;;;17.63;;
73113;SDS011;61301;51.956;5.876;2024-03-08T11:06:16;22.63;;;17.45;;
73113;SDS011;61301;51.956;5.876;2024-03-08T11:08:44;25.35;;;17.08;;
73113;SDS011;61301;51.956;5.876;2024-03-08T11:11:25;23.63;;;16.38;;
73113;SDS011;61301;51.956;5.876;2024-03-08T11:13:58;20.45;;;16.55;;
73113;SDS011;61301;51.956;5.876;2024-03-08T11:18:54;23.45;;;16.77;;
73113;SDS011;61301;51.956;5.876;2024-03-08T11:21:20;21.90;;;17.17;;
73113;SDS011;61301;51.956;5.876;2024-03-08T11:24:01;20.77;;;16.33;;
73113;SDS011;61301;51.956;5.876;2024-03-08T11:26:31;22.13;;;16.13;;
73113;SDS011;61301;51.956;5.876;2024-03-08T11:32:06;20.60;;;15.98;;
73113;SDS011;61301;51.956;5.876;2024-03-08T11:34:41;22.63;;;16.35;;
73113;SDS011;61301;51.956;5.876;2024-03-08T11:37:15;20.60;;;15.88;;
73113;SDS011;61301;51.956;5.876;2024-03-08T11:42:14;20.52;;;15.50;;
73113;SDS011;61301;51.956;5.876;2024-03-08T11:44:41;18.88;;;14.38;;
73113;SDS011;61301;51.956;5.876;2024-03-08T11:47:13;21.10;;;14.02;;
73113;SDS011;61301;51.956;5.876;2024-03-08T11:49:40;20.73;;;15.70;;
73113;SDS011;61301;51.956;5.876;2024-03-08T11:52:16;20.98;;;15.25;;
73113;SDS011;61301;51.956;5.876;2024-03-08T11:55:01;17.85;;;15.07;;
73113;SDS011;61301;51.956;5.876;2024-03-08T11:57:28;19.65;;;14.30;;
73113;SDS011;61301;51.956;5.876;2024-03-08T11:59:55;19.75;;;14.35;;
73113;SDS011;61301;51.956;5.876;2024-03-08T12:02:33;20.10;;;14.27;;
73113;SDS011;61301;51.956;5.876;2024-03-08T12:05:08;19.20;;;15.30;;
73113;SDS011;61301;51.956;5.876;2024-03-08T12:07:42;19.30;;;15.38;;
73113;SDS011;61301;51.956;5.876;2024-03-08T12:10:15;21.98;;;15.25;;
73113;SDS011;61301;51.956;5.876;2024-03-08T12:12:48;18.10;;;14.10;;
73113;SDS011;61301;51.956;5.876;2024-03-08T12:15:17;20.30;;;15.57;;
73113;SDS011;61301;51.956;5.876;2024-03-08T12:17:45;19.20;;;14.73;;
73113;SDS011;61301;51.956;5.876;2024-03-08T12:20:20;19.75;;;14.52;;
73113;SDS011;61301;51.956;5.876;2024-03-08T12:22:48;19.65;;;15.30;;
73113;SDS011;61301;51.956;5.876;2024-03-08T12:25:15;22.00;;;16.27;;
73113;SDS011;61301;51.956;5.876;2024-03-08T12:27:42;19.85;;;15.43;;
73113;SDS011;61301;51.956;5.876;2024-03-08T12:30:18;19.20;;;14.68;;
73113;SDS011;61301;51.956;5.876;2024-03-08T12:32:58;21.23;;;15.57;;
73113;SDS011;61301;51.956;5.876;2024-03-08T12:35:28;22.90;;;15.77;;
73113;SDS011;61301;51.956;5.876;2024-03-08T12:37:56;20.85;;;14.70;;
73113;SDS011;61301;51.956;5.876;2024-03-08T12:40:28;21.17;;;14.77;;
73113;SDS011;61301;51.956;5.876;2024-03-08T12:42:55;20.42;;;15.32;;
73113;SDS011;61301;51.956;5.876;2024-03-08T12:45:22;23.30;;;16.30;;
73113;SDS011;61301;51.956;5.876;2024-03-08T12:47:53;23.17;;;16.55;;
73113;SDS011;61301;51.956;5.876;2024-03-08T12:50:20;22.20;;;15.88;;
73113;SDS011;61301;51.956;5.876;2024-03-08T12:52:47;18.65;;;15.27;;
73113;SDS011;61301;51.956;5.876;2024-03-08T12:55:17;22.13;;;16.92;;
73113;SDS011;61301;51.956;5.876;2024-03-08T12:57:44;19.95;;;15.77;;
73113;SDS011;61301;51.956;5.876;2024-03-08T13:00:10;22.15;;;16.10;;
73113;SDS011;61301;51.956;5.876;2024-03-08T13:02:47;19.63;;;15.93;;
73113;SDS011;61301;51.956;5.876;2024-03-08T13:05:13;21.55;;;16.38;;
73113;SDS011;61301;51.956;5.876;2024-03-08T13:07:40;22.42;;;16.73;;
73113;SDS011;61301;51.956;5.876;2024-03-08T13:10:15;21.27;;;15.90;;
73113;SDS011;61301;51.956;5.876;2024-03-08T13:12:42;22.98;;;16.38;;
73113;SDS011;61301;51.956;5.876;2024-03-08T13:15:08;21.60;;;15.82;;
73113;SDS011;61301;51.956;5.876;2024-03-08T13:17:46;21.70;;;16.27;;
73113;SDS011;61301;51.956;5.876;2024-03-08T13:20:14;21.48;;;15.60;;
73113;SDS011;61301;51.956;5.876;2024-03-08T13:22:45;19.52;;;15.23;;
73113;SDS011;61301;51.956;5.876;2024-03-08T13:25:11;19.52;;;16.23;;
73113;SDS011;61301;51.956;5.876;2024-03-08T13:27:40;22.88;;;16.40;;
73113;SDS011;61301;51.956;5.876;2024-03-08T13:30:08;21.05;;;16.10;;
73113;SDS011;61301;51.956;5.876;2024-03-08T13:32:39;20.42;;;15.82;;
73113;SDS011;61301;51.956;5.876;2024-03-08T13:35:09;24.92;;;16.05;;
73113;SDS011;61301;51.956;5.876;2024-03-08T13:37:41;21.20;;;17.05;;
73113;SDS011;61301;51.956;5.876;2024-03-08T13:40:10;23.00;;;17.08;;
73113;SDS011;61301;51.956;5.876;2024-03-08T13:42:37;19.77;;;16.00;;
73113;SDS011;61301;51.956;5.876;2024-03-08T13:45:04;21.23;;;16.10;;
73113;SDS011;61301;51.956;5.876;2024-03-08T13:47:32;22.45;;;16.85;;
73113;SDS011;61301;51.956;5.876;2024-03-08T13:49:59;23.58;;;17.88;;
73113;SDS011;61301;51.956;5.876;2024-03-08T13:52:26;23.00;;;17.58;;
73113;SDS011;61301;51.956;5.876;2024-03-08T13:54:55;20.23;;;16.77;;
73113;SDS011;61301;51.956;5.876;2024-03-08T13:57:21;24.48;;;15.88;;
73113;SDS011;61301;51.956;5.876;2024-03-08T13:59:50;22.55;;;16.52;;
73113;SDS011;61301;51.956;5.876;2024-03-08T14:02:16;22.02;;;16.20;;
73113;SDS011;61301;51.956;5.876;2024-03-08T14:04:43;21.40;;;16.20;;
73113;SDS011;61301;51.956;5.876;2024-03-08T14:07:09;19.73;;;16.50;;
73113;SDS011;61301;51.956;5.876;2024-03-08T14:09:36;22.70;;;16.02;;
73113;SDS011;61301;51.956;5.876;2024-03-08T14:12:08;18.38;;;14.70;;
73113;SDS011;61301;51.956;5.876;2024-03-08T14:14:35;20.98;;;16.17;;
73113;SDS011;61301;51.956;5.876;2024-03-08T14:17:01;20.38;;;15.80;;
73113;SDS011;61301;51.956;5.876;2024-03-08T14:19:28;21.48;;;16.20;;
73113;SDS011;61301;51.956;5.876;2024-03-08T14:21:54;20.63;;;15.40;;
73113;SDS011;61301;51.956;5.876;2024-03-08T14:24:20;19.83;;;15.55;;
73113;SDS011;61301;51.956;5.876;2024-03-08T14:26:46;21.20;;;16.13;;
73113;SDS011;61301;51.956;5.876;2024-03-08T14:29:14;20.02;;;16.10;;
73113;SDS011;61301;51.956;5.876;2024-03-08T14:31:41;17.48;;;15.50;;
73113;SDS011;61301;51.956;5.876;2024-03-08T14:34:08;17.30;;;14.80;;
73113;SDS011;61301;51.956;5.876;2024-03-08T14:36:34;18.63;;;14.48;;
73113;SDS011;61301;51.956;5.876;2024-03-08T14:39:00;19.58;;;15.90;;